Woodbridge, California
Current Conditions -  °F | °C
As of 5:55 PM on Thursday 20 Nov 2014 (Local Time) from KSCK Reporting Station
Haze Haze  
Wind Chill: 55°   Ceiling: 6500
Heat Index: 55°   Visibility: 3mi
Dew Point: 53°   Wind: 0mph
Humidity: 93%   Direction: NA
Pressure: 30.02"   Gusts: NA
Location:  38.15°N, 121.3°W
Report Text: KSCK 210155Z 00000KT 3SM BR FEW022 OVC065 13/12 A3002 RMK AO2 RAE29 SLP164 P0003 T01280117
Loading
Personal Weather Stations






























Interactive Weather Map New forecast layout! Learn more

10-Day Weather Forecast

Advertisements
Track Severe Weather on mobile